createdAt,value
2018-12-04T00:01:41.935Z,11.10
2018-12-04T00:04:10.965Z,11.10
2018-12-04T00:06:39.725Z,11.10
2018-12-04T00:09:08.502Z,11.10
2018-12-04T00:11:38.240Z,11.10
2018-12-04T00:14:07.083Z,11.10
2018-12-04T00:16:36.446Z,11.00
2018-12-04T00:19:05.257Z,11.00
2018-12-04T00:21:34.247Z,11.00
2018-12-04T00:24:03.017Z,10.80
2018-12-04T00:26:31.773Z,10.70
2018-12-04T00:29:00.530Z,10.60
2018-12-04T00:31:29.149Z,10.50
2018-12-04T00:33:57.939Z,10.40
2018-12-04T00:36:26.596Z,10.30
2018-12-04T00:38:55.300Z,10.10
2018-12-04T00:41:24.057Z,9.90
2018-12-04T00:43:52.812Z,9.80
2018-12-04T00:46:21.534Z,9.60
2018-12-04T00:48:50.228Z,9.50
2018-12-04T00:51:19.082Z,9.50
2018-12-04T00:53:47.818Z,9.40
2018-12-04T00:56:16.544Z,9.30
2018-12-04T00:58:45.255Z,9.20
2018-12-04T01:01:13.965Z,9.10
2018-12-04T01:03:42.644Z,9.00
2018-12-04T01:06:17.889Z,8.90
2018-12-04T01:08:46.728Z,8.90
2018-12-04T01:11:15.732Z,8.90
2018-12-04T01:13:44.554Z,8.80
2018-12-04T01:16:13.344Z,8.70
2018-12-04T01:18:42.023Z,8.70
2018-12-04T01:21:11.642Z,8.60
2018-12-04T01:23:41.189Z,8.60
2018-12-04T01:26:09.881Z,8.60
2018-12-04T01:28:38.606Z,8.70
2018-12-04T01:31:07.313Z,8.70
2018-12-04T01:33:35.986Z,8.70
2018-12-04T01:36:05.040Z,8.80
2018-12-04T01:38:33.793Z,8.80
2018-12-04T01:41:02.612Z,8.80
2018-12-04T01:43:31.366Z,8.80
2018-12-04T01:46:00.142Z,8.70
2018-12-04T01:48:28.895Z,8.70
2018-12-04T01:50:57.801Z,8.70
2018-12-04T01:53:26.655Z,8.70
2018-12-04T01:55:55.431Z,8.70
2018-12-04T01:58:24.150Z,8.60
2018-12-04T02:00:52.807Z,8.60
2018-12-04T02:03:21.525Z,8.50
2018-12-04T02:05:50.478Z,8.50
2018-12-04T02:08:19.483Z,8.50
2018-12-04T02:10:48.231Z,8.40
2018-12-04T02:13:16.972Z,8.40
2018-12-04T02:15:45.918Z,8.40
2018-12-04T02:18:14.735Z,8.40
2018-12-04T02:20:43.484Z,8.40
2018-12-04T02:23:12.356Z,8.40
2018-12-04T02:25:41.363Z,8.40
2018-12-04T02:28:09.998Z,8.40
2018-12-04T02:30:38.766Z,8.40
2018-12-04T02:33:07.374Z,8.40
2018-12-04T02:35:36.132Z,8.30
2018-12-04T02:38:05.081Z,8.30
2018-12-04T02:40:34.022Z,8.30
2018-12-04T02:43:02.796Z,8.20
2018-12-04T02:45:31.498Z,8.20
2018-12-04T02:48:00.228Z,8.30
2018-12-04T02:50:28.985Z,8.30
2018-12-04T02:52:57.706Z,8.40
2018-12-04T02:55:26.348Z,8.30
2018-12-04T02:57:55.181Z,8.30
2018-12-04T03:00:23.934Z,8.30
2018-12-04T03:02:52.703Z,8.30
2018-12-04T03:05:21.440Z,8.30
2018-12-04T03:07:50.177Z,8.30
2018-12-04T03:10:18.909Z,8.40
2018-12-04T03:12:47.728Z,8.40
2018-12-04T03:15:16.553Z,8.40
2018-12-04T03:17:45.323Z,8.40
2018-12-04T03:20:14.026Z,8.30
2018-12-04T03:22:42.711Z,8.30
2018-12-04T03:25:11.545Z,8.30
2018-12-04T03:27:40.337Z,8.30
2018-12-04T03:30:09.302Z,8.30
2018-12-04T03:32:38.132Z,8.20
2018-12-04T03:35:07.097Z,8.20
2018-12-04T03:37:35.771Z,8.20
2018-12-04T03:40:05.862Z,8.20
2018-12-04T03:42:34.610Z,8.20
2018-12-04T03:45:03.903Z,8.20
2018-12-04T03:47:33.387Z,8.20
2018-12-04T03:50:02.053Z,8.20
2018-12-04T03:52:30.750Z,8.30
2018-12-04T03:54:59.512Z,8.30
2018-12-04T03:57:29.307Z,8.30
2018-12-04T03:59:58.058Z,8.30
2018-12-04T04:02:26.887Z,8.20
2018-12-04T04:04:55.746Z,8.20
2018-12-04T04:07:24.387Z,8.10
2018-12-04T04:09:53.221Z,8.20
2018-12-04T04:12:21.929Z,8.20
2018-12-04T04:14:50.666Z,8.10
2018-12-04T04:17:19.449Z,8.10
2018-12-04T04:19:48.145Z,8.10
2018-12-04T04:22:17.101Z,8.10
2018-12-04T04:24:45.905Z,8.10
2018-12-04T04:27:14.685Z,8.10
2018-12-04T04:29:43.478Z,8.00
2018-12-04T04:32:12.278Z,8.00
2018-12-04T04:34:42.213Z,8.00
2018-12-04T04:37:11.661Z,8.00
2018-12-04T04:39:40.376Z,8.00
2018-12-04T04:42:09.064Z,8.00
2018-12-04T04:44:37.729Z,8.00
2018-12-04T04:47:06.627Z,8.00
2018-12-04T04:49:35.402Z,8.00
2018-12-04T04:52:04.246Z,8.00
2018-12-04T04:54:32.985Z,8.00
2018-12-04T04:57:01.784Z,8.00
2018-12-04T04:59:30.430Z,8.00
2018-12-04T05:01:59.269Z,7.90
2018-12-04T05:04:27.966Z,7.90
2018-12-04T05:06:56.743Z,7.80
2018-12-04T05:09:25.526Z,7.90
2018-12-04T05:11:54.231Z,7.80
2018-12-04T05:14:22.966Z,7.80
2018-12-04T05:16:51.788Z,7.70
2018-12-04T05:19:20.435Z,7.70
2018-12-04T05:21:49.186Z,7.70
2018-12-04T05:24:17.910Z,7.70
2018-12-04T05:26:46.722Z,7.70
2018-12-04T05:29:15.489Z,7.60
2018-12-04T05:31:44.209Z,7.50
2018-12-04T05:34:13.273Z,7.50
2018-12-04T05:36:42.101Z,7.50
2018-12-04T05:39:11.969Z,7.40
2018-12-04T05:41:40.896Z,7.50
2018-12-04T05:44:09.675Z,7.50
2018-12-04T05:46:39.561Z,7.40
2018-12-04T05:49:08.254Z,7.40
2018-12-04T05:51:36.937Z,7.40
2018-12-04T05:54:08.048Z,7.40
2018-12-04T05:56:36.788Z,7.40
2018-12-04T05:59:05.501Z,7.30
2018-12-04T06:01:34.145Z,7.30
2018-12-04T06:04:02.933Z,7.30
2018-12-04T06:06:31.804Z,7.20
2018-12-04T06:09:00.537Z,7.20
2018-12-04T06:11:29.315Z,7.20
2018-12-04T06:13:58.106Z,7.20
2018-12-04T06:16:26.833Z,7.10
2018-12-04T06:18:55.599Z,7.10
2018-12-04T06:21:24.374Z,7.10
2018-12-04T06:23:53.164Z,7.00
2018-12-04T06:26:21.864Z,7.10
2018-12-04T06:28:50.644Z,7.10
2018-12-04T06:31:19.448Z,7.00
2018-12-04T06:33:48.245Z,7.00
2018-12-04T06:36:17.037Z,7.00
2018-12-04T06:38:45.841Z,7.00
2018-12-04T06:41:14.569Z,7.00
2018-12-04T06:43:43.281Z,7.00
2018-12-04T06:46:12.104Z,6.90
2018-12-04T06:48:40.859Z,7.00
2018-12-04T06:51:09.626Z,7.00
2018-12-04T06:53:38.364Z,6.90
2018-12-04T06:56:07.108Z,6.90
2018-12-04T06:58:36.193Z,6.80
2018-12-04T07:01:04.921Z,6.80
2018-12-04T07:03:33.651Z,6.80
2018-12-04T07:06:02.711Z,6.80
2018-12-04T07:08:31.545Z,6.90
2018-12-04T07:11:01.056Z,6.80
2018-12-04T07:13:30.161Z,6.80
2018-12-04T07:15:59.061Z,6.80
2018-12-04T07:18:27.677Z,6.80
2018-12-04T07:20:56.310Z,6.80
2018-12-04T07:23:25.242Z,6.70
2018-12-04T07:25:54.037Z,6.70
2018-12-04T07:28:22.774Z,6.70
2018-12-04T07:30:51.471Z,6.70
2018-12-04T07:33:20.368Z,6.70
2018-12-04T07:35:49.142Z,6.70
2018-12-04T07:38:17.888Z,6.70
2018-12-04T07:40:46.650Z,6.70
2018-12-04T07:43:15.609Z,6.70
2018-12-04T07:45:44.345Z,6.60
2018-12-04T07:48:13.077Z,6.60
2018-12-04T07:50:42.470Z,6.60
2018-12-04T07:53:12.138Z,6.60
2018-12-04T07:55:42.941Z,6.70
2018-12-04T07:58:12.233Z,6.70
2018-12-04T08:00:40.998Z,6.80
2018-12-04T08:03:09.742Z,6.80
2018-12-04T08:05:38.723Z,6.70
2018-12-04T08:08:07.479Z,6.70
2018-12-04T08:10:36.207Z,6.80
2018-12-04T08:13:04.886Z,6.70
2018-12-04T08:15:33.750Z,6.70
2018-12-04T08:18:02.573Z,6.70
2018-12-04T08:20:31.421Z,6.80
2018-12-04T08:23:00.386Z,6.90
2018-12-04T08:25:29.563Z,6.90
2018-12-04T08:27:58.269Z,7.00
2018-12-04T08:30:26.967Z,7.10
2018-12-04T08:32:55.676Z,7.10
2018-12-04T08:35:24.419Z,7.20
2018-12-04T08:37:53.205Z,7.20
2018-12-04T08:40:21.786Z,7.20
2018-12-04T08:42:50.437Z,7.30
2018-12-04T08:45:19.190Z,7.30
2018-12-04T08:47:47.961Z,7.20
2018-12-04T08:50:16.678Z,7.10
2018-12-04T08:52:45.430Z,7.10
2018-12-04T08:55:14.589Z,7.20
2018-12-04T08:57:43.215Z,7.40
2018-12-04T09:00:12.561Z,7.40
2018-12-04T09:02:41.283Z,7.40
2018-12-04T09:05:10.386Z,7.40
2018-12-04T09:07:39.165Z,7.40
2018-12-04T09:10:07.908Z,7.50
2018-12-04T09:12:36.735Z,7.60
2018-12-04T09:15:06.077Z,7.60
2018-12-04T09:17:34.893Z,7.70
2018-12-04T09:20:04.176Z,7.70
2018-12-04T09:22:32.931Z,7.90
2018-12-04T09:25:04.015Z,8.00
2018-12-04T09:27:32.677Z,8.00
2018-12-04T09:30:01.536Z,7.90
2018-12-04T09:32:30.283Z,7.90
2018-12-04T09:34:59.087Z,8.00
2018-12-04T09:37:28.924Z,8.10
2018-12-04T09:39:57.742Z,8.10
2018-12-04T09:42:26.461Z,8.10
2018-12-04T09:44:55.104Z,8.20
2018-12-04T09:47:24.381Z,8.20
2018-12-04T09:49:53.345Z,8.10
2018-12-04T09:52:21.978Z,8.10
2018-12-04T09:54:50.648Z,8.20
2018-12-04T09:57:19.337Z,8.30
2018-12-04T09:59:48.257Z,8.40
2018-12-04T10:02:17.205Z,8.50
2018-12-04T10:04:46.093Z,8.40
2018-12-04T10:07:14.833Z,8.40
2018-12-04T10:09:47.010Z,8.40
2018-12-04T10:12:15.773Z,8.40
2018-12-04T10:14:44.466Z,8.40
2018-12-04T10:17:13.209Z,8.50
2018-12-04T10:19:43.118Z,8.60
2018-12-04T10:22:12.693Z,8.60
2018-12-04T10:24:41.475Z,8.50
2018-12-04T10:27:10.497Z,8.40
2018-12-04T10:29:39.197Z,8.40
2018-12-04T10:32:07.902Z,8.40
2018-12-04T10:34:36.557Z,8.40
2018-12-04T10:37:05.304Z,8.30
2018-12-04T10:39:33.934Z,8.40
2018-12-04T10:42:02.869Z,8.40
2018-12-04T10:44:31.622Z,8.50
2018-12-04T10:47:00.369Z,8.50
2018-12-04T10:49:29.977Z,8.60
2018-12-04T10:51:58.725Z,8.50
2018-12-04T10:54:29.007Z,8.60
2018-12-04T10:56:57.707Z,8.60
2018-12-04T10:59:26.439Z,8.70
2018-12-04T11:02:00.569Z,8.70
2018-12-04T11:04:29.212Z,8.80
2018-12-04T11:06:57.965Z,8.90
2018-12-04T11:09:27.002Z,8.90
2018-12-04T11:11:55.785Z,8.90
2018-12-04T11:14:24.536Z,9.00
2018-12-04T11:16:53.273Z,9.10
2018-12-04T11:19:21.991Z,9.10
2018-12-04T11:21:50.766Z,8.90
2018-12-04T11:24:19.639Z,8.90
2018-12-04T11:26:48.326Z,8.90
2018-12-04T11:29:17.093Z,8.90
2018-12-04T11:31:46.120Z,8.70
2018-12-04T11:34:14.853Z,8.90
2018-12-04T11:36:43.643Z,9.00
2018-12-04T11:39:13.049Z,8.90
2018-12-04T11:41:41.839Z,9.00
2018-12-04T11:44:10.633Z,9.00
2018-12-04T11:46:39.678Z,9.00
2018-12-04T11:49:08.793Z,9.00
2018-12-04T11:51:37.566Z,9.10
2018-12-04T11:54:06.247Z,9.00
2018-12-04T11:56:34.985Z,9.10
2018-12-04T11:59:03.782Z,9.10
2018-12-04T12:01:32.562Z,9.10
2018-12-04T12:04:01.346Z,9.10
2018-12-04T12:06:30.092Z,9.10
2018-12-04T12:08:58.769Z,9.10
2018-12-04T12:11:27.521Z,9.10
2018-12-04T12:13:56.142Z,9.00
2018-12-04T12:16:25.342Z,9.00
2018-12-04T12:18:54.106Z,9.00
2018-12-04T12:21:22.861Z,9.00
2018-12-04T12:23:51.569Z,9.10
2018-12-04T12:26:20.529Z,9.20
2018-12-04T12:28:49.331Z,9.40
2018-12-04T12:31:18.036Z,9.40
2018-12-04T12:33:46.729Z,9.40
2018-12-04T12:36:15.418Z,9.30
2018-12-04T12:38:44.085Z,9.20
2018-12-04T12:41:13.125Z,9.40
2018-12-04T12:43:41.790Z,9.40
2018-12-04T12:46:10.541Z,9.30
2018-12-04T12:48:39.322Z,9.30
2018-12-04T12:51:08.073Z,9.10
2018-12-04T12:53:36.864Z,8.90
2018-12-04T12:56:05.645Z,8.90
2018-12-04T12:58:34.453Z,9.00
2018-12-04T13:01:03.197Z,8.80
2018-12-04T13:03:32.029Z,8.80
2018-12-04T13:06:00.815Z,8.90
2018-12-04T13:08:29.763Z,9.00
2018-12-04T13:10:58.530Z,9.10
2018-12-04T13:13:27.681Z,9.00
2018-12-04T13:15:56.369Z,8.90
2018-12-04T13:18:25.329Z,8.60
2018-12-04T13:20:53.974Z,8.60
2018-12-04T13:23:22.597Z,8.70
2018-12-04T13:25:51.299Z,8.80
2018-12-04T13:28:20.206Z,8.80
2018-12-04T13:30:49.065Z,8.70
2018-12-04T13:33:17.776Z,8.60
2018-12-04T13:35:46.461Z,8.60
2018-12-04T13:38:15.153Z,8.50
2018-12-04T13:40:43.973Z,8.50
2018-12-04T13:43:12.621Z,8.40
2018-12-04T13:45:41.352Z,8.40
2018-12-04T13:48:10.197Z,8.50
2018-12-04T13:50:38.967Z,8.40
2018-12-04T13:53:07.649Z,8.30
2018-12-04T13:55:36.428Z,8.30
2018-12-04T13:58:05.216Z,8.30
2018-12-04T14:00:34.048Z,8.40
2018-12-04T14:03:02.985Z,8.40
2018-12-04T14:05:31.790Z,8.30
2018-12-04T14:08:00.583Z,8.40
2018-12-04T14:10:29.355Z,8.20
2018-12-04T14:12:58.655Z,8.10
2018-12-04T14:15:27.411Z,8.00
2018-12-04T14:17:56.186Z,8.00
2018-12-04T14:20:24.818Z,7.90
2018-12-04T14:25:17.195Z,8.00
2018-12-04T14:27:49.214Z,8.00
2018-12-04T14:30:16.769Z,7.90
2018-12-04T14:32:45.565Z,7.90
2018-12-04T14:35:14.274Z,7.90
2018-12-04T14:37:43.579Z,7.90
2018-12-04T14:40:12.371Z,7.80
2018-12-04T14:42:41.276Z,7.70
2018-12-04T14:45:10.016Z,7.70
2018-12-04T14:47:39.097Z,7.60
2018-12-04T14:50:08.830Z,7.60
2018-12-04T14:52:37.837Z,7.60
2018-12-04T14:55:07.535Z,7.60
2018-12-04T14:57:36.330Z,7.60
2018-12-04T15:00:06.481Z,7.60
2018-12-04T15:02:35.607Z,7.50
2018-12-04T15:05:04.844Z,7.50
2018-12-04T15:07:33.578Z,7.50
2018-12-04T15:10:02.387Z,7.40
2018-12-04T15:12:31.175Z,7.30
2018-12-04T15:14:59.964Z,7.30
2018-12-04T15:17:28.745Z,7.30
2018-12-04T15:19:57.474Z,7.30
2018-12-04T15:22:26.208Z,7.30
2018-12-04T15:24:54.997Z,7.20
2018-12-04T15:27:23.742Z,7.20
2018-12-04T15:29:52.604Z,7.10
2018-12-04T15:32:21.494Z,7.00
2018-12-04T15:34:50.247Z,7.00
2018-12-04T15:37:18.933Z,7.00
2018-12-04T15:39:47.832Z,7.00
2018-12-04T15:42:16.776Z,7.00
2018-12-04T15:44:45.414Z,7.00
2018-12-04T15:47:14.285Z,7.00
2018-12-04T15:49:43.187Z,6.90
2018-12-04T15:52:11.976Z,6.90
2018-12-04T15:54:40.790Z,6.90
2018-12-04T15:57:09.589Z,6.90
2018-12-04T15:59:38.229Z,6.90
2018-12-04T16:02:07.961Z,6.80
2018-12-04T16:04:36.674Z,6.90
2018-12-04T16:07:05.421Z,6.80
2018-12-04T16:09:34.076Z,6.80
2018-12-04T16:12:02.710Z,6.90
2018-12-04T16:14:31.395Z,6.80
2018-12-04T16:17:00.053Z,6.70
2018-12-04T16:19:29.022Z,6.70
2018-12-04T16:21:57.807Z,6.70
2018-12-04T16:24:26.552Z,6.70
2018-12-04T16:26:55.233Z,6.70
2018-12-04T16:29:24.002Z,6.80
2018-12-04T16:31:52.975Z,6.70
2018-12-04T16:34:21.660Z,6.70
2018-12-04T16:36:50.508Z,6.70
2018-12-04T16:39:19.310Z,6.70
2018-12-04T16:41:47.980Z,6.60
2018-12-04T16:44:16.753Z,6.60
2018-12-04T16:46:45.454Z,6.60
2018-12-04T16:49:14.414Z,6.60
2018-12-04T16:51:43.485Z,6.50
2018-12-04T16:54:12.208Z,6.50
2018-12-04T16:56:41.215Z,6.50
2018-12-04T16:59:09.899Z,6.50
2018-12-04T17:01:38.661Z,6.50
2018-12-04T17:04:08.182Z,6.50
2018-12-04T17:06:37.160Z,6.50
2018-12-04T17:09:07.397Z,6.40
2018-12-04T17:11:38.098Z,6.30
2018-12-04T17:14:06.927Z,6.10
2018-12-04T17:16:35.834Z,6.10
2018-12-04T17:19:05.047Z,6.20
2018-12-04T17:21:33.818Z,6.20
2018-12-04T17:24:02.587Z,6.20
2018-12-04T17:26:31.381Z,6.10
2018-12-04T17:29:00.150Z,6.00
2018-12-04T17:31:28.863Z,6.00
2018-12-04T17:33:57.650Z,6.00
2018-12-04T17:36:26.526Z,6.10
2018-12-04T17:38:57.807Z,6.10
2018-12-04T17:41:28.016Z,6.10
2018-12-04T17:43:57.521Z,6.10
2018-12-04T17:46:26.202Z,6.10
2018-12-04T17:48:54.838Z,5.90
2018-12-04T17:51:23.952Z,5.80
2018-12-04T17:53:52.922Z,5.80
2018-12-04T17:56:23.704Z,5.90
2018-12-04T17:58:52.369Z,5.80
2018-12-04T18:01:21.036Z,5.80
2018-12-04T18:03:50.038Z,5.80
2018-12-04T18:06:18.881Z,5.80
2018-12-04T18:08:47.745Z,5.80
2018-12-04T18:11:19.012Z,5.80
2018-12-04T18:13:47.767Z,5.70
2018-12-04T18:16:16.878Z,5.60
2018-12-04T18:18:45.563Z,5.60
2018-12-04T18:21:14.835Z,5.60
2018-12-04T18:23:44.000Z,5.60
2018-12-04T18:26:12.752Z,5.60
2018-12-04T18:28:41.599Z,5.50
2018-12-04T18:31:10.355Z,5.60
2018-12-04T18:33:38.974Z,5.50
2018-12-04T18:36:08.860Z,5.60
2018-12-04T18:38:39.359Z,5.50
2018-12-04T18:41:09.436Z,5.60
2018-12-04T18:43:39.047Z,5.50
2018-12-04T18:46:08.736Z,5.50
2018-12-04T18:48:38.382Z,5.50
2018-12-04T18:51:07.593Z,5.50
2018-12-04T18:53:36.727Z,5.50
2018-12-04T18:56:05.457Z,5.50
2018-12-04T18:58:35.312Z,5.40
2018-12-04T19:01:04.202Z,5.50
2018-12-04T19:03:33.894Z,5.50
2018-12-04T19:06:02.931Z,5.40
2018-12-04T19:08:37.440Z,5.40
2018-12-04T19:11:06.193Z,5.40
2018-12-04T19:13:34.848Z,5.40
2018-12-04T19:16:03.639Z,5.40
2018-12-04T19:18:32.750Z,5.30
2018-12-04T19:21:01.579Z,5.30
2018-12-04T19:23:30.593Z,5.30
2018-12-04T19:25:59.337Z,5.30
2018-12-04T19:28:28.099Z,5.30
2018-12-04T19:31:02.631Z,5.40
2018-12-04T19:33:27.795Z,5.40
2018-12-04T19:35:56.558Z,5.40
2018-12-04T19:38:25.338Z,5.40
2018-12-04T19:40:54.722Z,5.40
2018-12-04T19:43:23.628Z,5.40
2018-12-04T19:45:52.382Z,5.40
2018-12-04T19:48:21.040Z,5.30
2018-12-04T19:50:49.760Z,5.30
2018-12-04T19:53:18.481Z,5.20
2018-12-04T19:55:47.137Z,5.30
2018-12-04T19:58:15.951Z,5.20
2018-12-04T20:00:44.682Z,5.20
2018-12-04T20:03:13.470Z,5.20
2018-12-04T20:05:42.419Z,5.20
2018-12-04T20:08:11.189Z,5.20
2018-12-04T20:10:39.877Z,5.10
2018-12-04T20:13:09.078Z,5.00
2018-12-04T20:15:37.842Z,5.10
2018-12-04T20:18:06.710Z,5.10
2018-12-04T20:20:35.441Z,5.00
2018-12-04T20:23:04.186Z,5.00
2018-12-04T20:25:32.936Z,5.10
2018-12-04T20:28:01.637Z,5.10
2018-12-04T20:30:30.398Z,5.10
2018-12-04T20:32:59.999Z,5.10
2018-12-04T20:35:29.137Z,5.10
2018-12-04T20:40:33.130Z,5.00
2018-12-04T20:43:02.729Z,5.00
2018-12-04T20:45:31.577Z,5.10
2018-12-04T20:48:00.255Z,5.00
2018-12-04T20:50:28.983Z,5.00
2018-12-04T20:52:57.736Z,5.00
2018-12-04T20:55:27.506Z,4.90
2018-12-04T20:57:56.499Z,4.80
2018-12-04T21:00:25.311Z,4.80
2018-12-04T21:02:54.043Z,4.80
2018-12-04T21:05:22.934Z,4.80
2018-12-04T21:07:51.804Z,4.80
2018-12-04T21:10:20.554Z,4.90
2018-12-04T21:12:49.266Z,4.90
2018-12-04T21:15:18.071Z,4.90
2018-12-04T21:17:46.859Z,4.90
2018-12-04T21:20:15.624Z,4.90
2018-12-04T21:22:44.458Z,4.80
2018-12-04T21:25:13.197Z,4.80
2018-12-04T21:27:47.389Z,4.70
2018-12-04T21:30:21.557Z,4.70
2018-12-04T21:32:56.144Z,4.80
2018-12-04T21:35:30.738Z,4.80
2018-12-04T21:38:05.425Z,4.80
2018-12-04T21:40:39.493Z,4.70
2018-12-04T21:43:14.706Z,4.80
2018-12-04T21:45:48.874Z,4.80
2018-12-04T21:48:27.809Z,4.90
2018-12-04T21:50:56.594Z,4.80
2018-12-04T21:53:25.370Z,4.80
2018-12-04T21:55:54.077Z,4.80
2018-12-04T21:58:22.794Z,4.80
2018-12-04T22:00:51.909Z,4.80
2018-12-04T22:03:20.756Z,4.80
2018-12-04T22:05:49.549Z,4.80
2018-12-04T22:08:18.189Z,4.80
2018-12-04T22:10:46.896Z,4.80
2018-12-04T22:13:15.648Z,4.80
2018-12-04T22:15:44.441Z,4.80
2018-12-04T22:18:13.105Z,4.80
2018-12-04T22:20:41.839Z,4.90
2018-12-04T22:23:10.514Z,4.80
2018-12-04T22:25:39.472Z,4.90
2018-12-04T22:28:08.261Z,4.90
2018-12-04T22:30:37.061Z,4.80
2018-12-04T22:33:05.847Z,4.70
2018-12-04T22:35:35.482Z,4.80
2018-12-04T22:38:04.158Z,4.80
2018-12-04T22:40:32.866Z,4.70
2018-12-04T22:43:01.558Z,4.70
2018-12-04T22:45:30.241Z,4.60
2018-12-04T22:47:58.893Z,4.50
2018-12-04T22:50:27.662Z,4.50
2018-12-04T22:52:56.381Z,4.50
2018-12-04T22:55:25.076Z,4.50
2018-12-04T22:57:53.774Z,4.30
2018-12-04T23:00:31.674Z,4.30
2018-12-04T23:03:00.414Z,4.20
2018-12-04T23:05:29.203Z,4.10
2018-12-04T23:07:57.992Z,4.20
2018-12-04T23:10:26.899Z,4.10
2018-12-04T23:12:55.597Z,4.10
2018-12-04T23:15:24.536Z,4.10
2018-12-04T23:17:53.282Z,4.20
2018-12-04T23:20:22.050Z,4.20
2018-12-04T23:22:50.821Z,4.10
2018-12-04T23:25:19.570Z,4.20
2018-12-04T23:27:48.332Z,4.20
2018-12-04T23:30:17.098Z,4.20
2018-12-04T23:32:45.874Z,4.10
2018-12-04T23:35:15.001Z,4.10
2018-12-04T23:37:43.757Z,4.10
2018-12-04T23:40:12.549Z,4.00
2018-12-04T23:42:41.165Z,3.90
2018-12-04T23:45:10.019Z,3.90
2018-12-04T23:47:39.691Z,3.90
2018-12-04T23:50:08.453Z,3.90
2018-12-04T23:52:37.226Z,3.90
2018-12-04T23:55:06.058Z,3.90
2018-12-04T23:57:34.739Z,3.90
